createdAt,value
2022-09-23T00:11:36.842Z,7.4
2022-09-23T00:21:39.189Z,7.3
2022-09-23T00:31:41.238Z,7.1
2022-09-23T00:41:43.882Z,7.1
2022-09-23T00:51:45.605Z,7.1
2022-09-23T01:01:47.726Z,7
2022-09-23T01:11:50.064Z,7
2022-09-23T01:21:52.538Z,7.1
2022-09-23T01:31:54.488Z,7
2022-09-23T01:41:56.322Z,7
2022-09-23T02:02:00.551Z,7.1
2022-09-23T02:12:02.866Z,7.1
2022-09-23T02:32:06.959Z,6.8
2022-09-23T02:42:09.464Z,6.7
2022-09-23T02:52:12.019Z,6.6
2022-09-23T03:02:14.566Z,6.6
2022-09-23T03:12:16.567Z,6.6
2022-09-23T03:22:18.277Z,6.6
2022-09-23T03:32:20.904Z,6.7
2022-09-23T03:42:23.527Z,6.7
2022-09-23T03:52:25.769Z,6.5
2022-09-23T04:02:27.520Z,6.5
2022-09-23T04:12:29.590Z,6.2
2022-09-23T04:22:32.028Z,6
2022-09-23T04:32:33.921Z,6
2022-09-23T04:42:35.783Z,5.9
2022-09-23T04:52:37.460Z,5.8
2022-09-23T05:02:40.038Z,6
2022-09-23T05:12:41.945Z,5.8
2022-09-23T05:22:44.433Z,5.7
2022-09-23T05:32:46.546Z,5.7
2022-09-23T05:42:48.859Z,5.9
2022-09-23T05:52:50.811Z,6.2
2022-09-23T06:02:53.294Z,7.1
2022-09-23T06:12:55.558Z,7.7
2022-09-23T06:22:57.942Z,8.1
2022-09-23T06:32:59.758Z,8.7
2022-09-23T06:43:02.256Z,10.9
2022-09-23T06:53:04.173Z,10.6
2022-09-23T07:03:06.599Z,11.1
2022-09-23T07:13:08.968Z,12.3
2022-09-23T07:23:10.038Z,12.7
2022-09-23T07:33:24.704Z,12.7
2022-09-23T07:43:13.930Z,12.7
2022-09-23T07:53:15.755Z,13.3
2022-09-23T08:03:18.162Z,14.2
2022-09-23T08:13:20.625Z,14
2022-09-23T08:23:22.329Z,14
2022-09-23T08:33:24.281Z,14.6
2022-09-23T08:43:26.411Z,14.1
2022-09-23T08:53:28.414Z,14
2022-09-23T09:03:30.926Z,14.6
2022-09-23T09:13:33.058Z,14.9
2022-09-23T11:04:04.182Z,17.2
2022-09-23T11:54:17.230Z,17.9
2022-09-23T12:14:17.687Z,18.1
2022-09-23T12:24:19.949Z,17.9
2022-09-23T12:44:24.073Z,17.8
2022-09-23T12:54:26.324Z,18.4
2022-09-23T13:14:30.082Z,18.4
2022-09-23T13:24:32.066Z,18.4
2022-09-23T13:34:33.799Z,18.1
2022-09-23T13:54:37.848Z,18.2
2022-09-23T14:14:42.226Z,18.5
2022-09-23T14:24:44.849Z,18.2
2022-09-23T14:34:47.327Z,18
2022-09-23T14:44:49.224Z,18.1
2022-09-23T14:54:51.061Z,17.7
2022-09-23T15:04:55.105Z,17.6
2022-09-23T15:14:56.142Z,17.3
2022-09-23T15:24:58.710Z,17.1
2022-09-23T15:35:01.191Z,17.1
2022-09-23T15:45:03.597Z,17
2022-09-23T15:55:06.125Z,16.8
2022-09-23T16:05:08.533Z,16.6
2022-09-23T16:15:10.508Z,16.4
2022-09-23T16:25:12.316Z,16.3
2022-09-23T16:35:14.301Z,16.1
2022-09-23T16:45:16.049Z,15.9
2022-09-23T16:55:18.083Z,15.8
2022-09-23T17:05:20.074Z,15.5
2022-09-23T17:15:22.261Z,15.1
2022-09-23T17:25:24.880Z,14.8
2022-09-23T17:45:29.078Z,14
2022-09-23T17:55:30.725Z,13.8
2022-09-23T18:05:33.088Z,13.4
2022-09-23T18:25:39.748Z,13.3
2022-09-23T19:05:46.141Z,12.9
2022-09-23T19:25:50.786Z,12.6
2022-09-23T19:55:57.465Z,12.3
2022-09-23T20:46:08.227Z,12.4
2022-09-23T20:56:10.796Z,12.2
2022-09-23T21:16:15.095Z,12.2
2022-09-23T21:26:17.109Z,12.2
2022-09-23T21:36:19.209Z,12.2
2022-09-23T21:56:23.738Z,12
2022-09-23T22:16:27.735Z,11.9
2022-09-23T22:36:32.020Z,12
2022-09-23T22:46:34.625Z,12
2022-09-23T22:56:37.092Z,12
2022-09-23T23:06:39.247Z,11.9
2022-09-23T23:16:41.665Z,11.8
2022-09-23T23:26:44.339Z,11.7
2022-09-23T23:36:46.110Z,11.9
2022-09-23T23:46:47.994Z,11.9
2022-09-23T23:56:49.809Z,11.9
